createdAt,value
2022-08-10T00:00:40.538Z,17.79
2022-08-10T00:01:40.669Z,17.78
2022-08-10T00:02:40.480Z,17.76
2022-08-10T00:03:40.494Z,17.74
2022-08-10T00:04:40.772Z,17.73
2022-08-10T00:05:43.883Z,17.69
2022-08-10T00:06:40.448Z,17.69
2022-08-10T00:07:40.454Z,17.66
2022-08-10T00:08:40.442Z,17.64
2022-08-10T00:09:51.011Z,17.63
2022-08-10T00:10:40.414Z,17.59
2022-08-10T00:11:40.423Z,17.55
2022-08-10T00:12:54.576Z,17.54
2022-08-10T00:13:40.468Z,17.51
2022-08-10T00:14:40.372Z,17.50
2022-08-10T00:15:52.495Z,17.50
2022-08-10T00:16:40.391Z,17.47
2022-08-10T00:17:40.381Z,17.47
2022-08-10T00:18:40.324Z,17.46
2022-08-10T00:20:04.244Z,17.44
2022-08-10T00:20:40.291Z,17.41
2022-08-10T00:21:40.285Z,17.40
2022-08-10T00:22:52.857Z,17.36
2022-08-10T00:23:40.318Z,17.36
2022-08-10T00:24:43.181Z,17.35
2022-08-10T00:25:40.240Z,17.30
2022-08-10T00:27:52.338Z,17.29
2022-08-10T00:28:08.115Z,17.28
2022-08-10T00:28:40.213Z,17.25
2022-08-10T00:29:40.539Z,17.23
2022-08-10T00:30:40.200Z,17.22
2022-08-10T00:31:58.690Z,17.18
2022-08-10T00:32:40.166Z,17.15
2022-08-10T00:33:40.185Z,17.14
2022-08-10T00:34:40.154Z,17.13
2022-08-10T00:35:40.175Z,17.13
2022-08-10T00:36:40.424Z,17.11
2022-08-10T00:37:40.106Z,17.11
2022-08-10T00:38:40.103Z,17.08
2022-08-10T00:39:40.157Z,17.07
2022-08-10T00:40:40.084Z,17.03
2022-08-10T00:41:40.111Z,17.00
2022-08-10T00:42:40.061Z,17.00
2022-08-10T00:43:40.307Z,16.98
2022-08-10T00:44:40.032Z,16.98
2022-08-10T00:45:40.028Z,16.96
2022-08-10T00:46:40.022Z,16.93
2022-08-10T00:47:40.052Z,16.95
2022-08-10T00:48:39.992Z,16.92
2022-08-10T00:49:39.977Z,16.92
2022-08-10T00:50:40.275Z,16.89
2022-08-10T00:51:40.285Z,16.89
2022-08-10T00:52:39.968Z,16.88
2022-08-10T00:53:39.974Z,16.85
2022-08-10T00:54:39.926Z,16.85
2022-08-10T00:57:05.118Z,16.83
2022-08-10T00:57:22.125Z,16.81
2022-08-10T00:57:39.913Z,16.78
2022-08-10T00:58:39.886Z,16.77
2022-08-10T00:59:58.195Z,16.77
2022-08-10T01:00:39.867Z,16.74
2022-08-10T01:02:09.205Z,16.74
2022-08-10T01:02:40.183Z,16.73
2022-08-10T01:04:36.369Z,16.71
2022-08-10T01:05:03.770Z,16.71
2022-08-10T01:05:51.586Z,16.71
2022-08-10T01:06:39.812Z,16.71
2022-08-10T01:07:39.799Z,16.71
2022-08-10T01:08:39.773Z,16.68
2022-08-10T01:09:39.780Z,16.67
2022-08-10T01:10:40.089Z,16.65
2022-08-10T01:12:37.351Z,16.62
2022-08-10T01:12:45.768Z,16.60
2022-08-10T01:13:39.728Z,16.60
2022-08-10T01:14:39.713Z,16.56
2022-08-10T01:15:39.706Z,16.56
2022-08-10T01:16:39.767Z,16.53
2022-08-10T01:17:50.713Z,16.53
2022-08-10T01:18:39.687Z,16.52
2022-08-10T01:19:39.677Z,16.52
2022-08-10T01:20:39.648Z,16.50
2022-08-10T01:21:39.637Z,16.49
2022-08-10T01:22:39.683Z,16.49
2022-08-10T01:23:39.619Z,16.45
2022-08-10T01:24:39.908Z,16.45
2022-08-10T01:26:10.762Z,16.44
2022-08-10T01:26:40.686Z,16.42
2022-08-10T01:27:39.567Z,16.44
2022-08-10T01:28:39.623Z,16.42
2022-08-10T01:29:39.565Z,16.41
2022-08-10T01:30:39.684Z,16.40
2022-08-10T01:31:39.947Z,16.40
2022-08-10T01:32:39.534Z,16.37
2022-08-10T01:33:58.762Z,16.38
2022-08-10T01:34:39.555Z,16.34
2022-08-10T01:35:39.476Z,16.34
2022-08-10T01:36:39.498Z,16.33
2022-08-10T01:37:39.466Z,16.33
2022-08-10T01:38:39.747Z,16.31
2022-08-10T01:39:39.566Z,16.27
2022-08-10T01:40:39.489Z,16.27
2022-08-10T01:41:45.933Z,16.26
2022-08-10T01:42:39.431Z,16.26
2022-08-10T01:43:39.417Z,16.23
2022-08-10T01:44:39.389Z,16.22
2022-08-10T01:45:45.123Z,16.16
2022-08-10T01:46:39.420Z,16.20
2022-08-10T01:47:39.352Z,16.15
2022-08-10T01:48:39.370Z,16.16
2022-08-10T01:49:39.343Z,16.16
2022-08-10T01:50:53.227Z,16.15
2022-08-10T01:51:39.639Z,16.15
2022-08-10T01:52:39.351Z,16.14
2022-08-10T01:53:40.143Z,16.12
2022-08-10T01:54:39.287Z,16.14
2022-08-10T01:55:39.268Z,16.11
2022-08-10T01:56:39.269Z,16.11
2022-08-10T01:57:39.247Z,16.11
2022-08-10T01:58:39.590Z,16.11
2022-08-10T01:59:39.219Z,16.11
2022-08-10T02:00:39.219Z,16.07
2022-08-10T02:01:39.357Z,16.03
2022-08-10T02:02:39.206Z,16.01
2022-08-10T02:04:04.908Z,16.00
2022-08-10T02:04:39.508Z,16.01
2022-08-10T02:05:39.190Z,16.00
2022-08-10T02:06:39.156Z,15.96
2022-08-10T02:07:39.143Z,15.94
2022-08-10T02:08:39.126Z,15.96
2022-08-10T02:09:39.170Z,15.94
2022-08-10T02:10:39.138Z,15.94
2022-08-10T02:12:05.500Z,15.93
2022-08-10T02:12:39.095Z,15.92
2022-08-10T02:13:39.084Z,15.89
2022-08-10T02:14:39.071Z,15.88
2022-08-10T02:15:39.062Z,15.88
2022-08-10T02:16:39.097Z,15.85
2022-08-10T02:18:00.869Z,15.84
2022-08-10T02:18:39.029Z,15.82
2022-08-10T02:19:39.009Z,15.84
2022-08-10T02:20:39.007Z,15.81
2022-08-10T02:21:39.015Z,15.81
2022-08-10T02:22:40.304Z,15.81
2022-08-10T02:23:38.981Z,15.79
2022-08-10T02:24:38.968Z,15.76
2022-08-10T02:25:42.249Z,15.75
2022-08-10T02:26:38.943Z,15.75
2022-08-10T02:27:38.928Z,15.72
2022-08-10T02:28:38.966Z,15.70
2022-08-10T02:29:38.911Z,15.68
2022-08-10T02:30:38.893Z,15.68
2022-08-10T02:31:38.874Z,15.68
2022-08-10T02:32:38.977Z,15.66
2022-08-10T02:33:38.888Z,15.67
2022-08-10T02:34:38.892Z,15.66
2022-08-10T02:35:54.415Z,15.66
2022-08-10T02:36:38.848Z,15.63
2022-08-10T02:37:38.850Z,15.63
2022-08-10T02:38:58.379Z,15.60
2022-08-10T02:39:38.855Z,15.61
2022-08-10T02:42:18.359Z,15.59
2022-08-10T02:45:31.732Z,15.60
2022-08-10T02:45:37.465Z,15.54
2022-08-10T02:46:37.069Z,15.54
2022-08-10T02:47:46.578Z,15.51
2022-08-10T02:48:37.018Z,15.52
2022-08-10T02:49:36.992Z,15.51
2022-08-10T02:50:37.003Z,15.51
2022-08-10T02:52:06.813Z,15.49
2022-08-10T02:52:37.199Z,15.49
2022-08-10T02:53:55.206Z,15.48
2022-08-10T02:54:36.960Z,15.46
2022-08-10T02:55:36.943Z,15.48
2022-08-10T02:56:36.933Z,15.45
2022-08-10T02:57:36.911Z,15.46
2022-08-10T02:58:36.943Z,15.45
2022-08-10T02:59:39.645Z,15.43
2022-08-10T03:00:37.165Z,15.42
2022-08-10T03:01:36.978Z,15.42
2022-08-10T03:02:37.126Z,15.39
2022-08-10T03:03:36.855Z,15.38
2022-08-10T03:04:55.090Z,15.35
2022-08-10T03:05:36.880Z,15.36
2022-08-10T03:06:36.844Z,15.36
2022-08-10T03:07:43.153Z,15.33
2022-08-10T03:08:36.801Z,15.33
2022-08-10T03:09:36.779Z,15.30
2022-08-10T03:10:39.538Z,15.28
2022-08-10T03:12:36.735Z,15.30
2022-08-10T03:12:43.375Z,15.28
2022-08-10T03:13:36.749Z,15.27
2022-08-10T03:14:37.002Z,15.27
2022-08-10T03:15:36.735Z,15.26
2022-08-10T03:16:36.745Z,15.24
2022-08-10T03:17:36.699Z,15.24
2022-08-10T03:18:36.701Z,15.23
2022-08-10T03:20:35.846Z,15.24
2022-08-10T03:20:43.554Z,15.21
2022-08-10T03:21:36.661Z,15.20
2022-08-10T03:22:36.818Z,15.19
2022-08-10T03:23:36.626Z,15.20
2022-08-10T03:24:36.614Z,15.19
2022-08-10T03:25:36.625Z,15.20
2022-08-10T03:26:36.609Z,15.19
2022-08-10T03:27:36.871Z,15.17
2022-08-10T03:28:36.630Z,15.19
2022-08-10T03:30:29.627Z,15.17
2022-08-10T03:30:38.421Z,15.17
2022-08-10T03:31:36.541Z,15.15
2022-08-10T03:32:36.731Z,15.15
2022-08-10T03:33:36.548Z,15.17
2022-08-10T03:34:36.552Z,15.15
2022-08-10T03:35:36.536Z,15.12
2022-08-10T03:36:44.041Z,15.12
2022-08-10T03:37:36.492Z,15.13
2022-08-10T03:38:36.518Z,15.11
2022-08-10T03:39:36.874Z,15.09
2022-08-10T03:40:46.172Z,15.09
2022-08-10T03:41:36.479Z,15.09
2022-08-10T03:42:36.625Z,15.06
2022-08-10T03:43:36.429Z,15.06
2022-08-10T03:44:36.415Z,15.05
2022-08-10T03:45:55.430Z,15.03
2022-08-10T03:46:36.462Z,15.03
2022-08-10T03:47:36.375Z,15.02
2022-08-10T03:48:48.658Z,15.01
2022-08-10T03:49:36.366Z,15.02
2022-08-10T03:50:51.138Z,15.01
2022-08-10T03:51:36.345Z,14.99
2022-08-10T03:52:36.530Z,14.99
2022-08-10T03:54:04.871Z,14.99
2022-08-10T03:54:36.315Z,14.99
2022-08-10T03:56:28.671Z,14.98
2022-08-10T03:56:36.339Z,14.95
2022-08-10T03:57:36.554Z,14.94
2022-08-10T03:58:36.294Z,14.94
2022-08-10T03:59:36.283Z,14.93
2022-08-10T04:00:36.339Z,14.91
2022-08-10T04:02:52.006Z,14.90
2022-08-10T04:02:57.200Z,14.91
2022-08-10T04:03:36.203Z,14.93
2022-08-10T04:04:36.497Z,14.91
2022-08-10T04:05:38.661Z,14.90
2022-08-10T04:06:36.165Z,14.88
2022-08-10T04:07:36.167Z,14.87
2022-08-10T04:08:36.149Z,14.87
2022-08-10T04:09:54.440Z,14.87
2022-08-10T04:10:36.176Z,14.86
2022-08-10T04:11:36.445Z,14.86
2022-08-10T04:12:36.338Z,14.86
2022-08-10T04:13:36.103Z,14.84
2022-08-10T04:14:49.147Z,14.84
2022-08-10T04:15:36.079Z,14.84
2022-08-10T04:16:36.089Z,14.84
2022-08-10T04:17:57.136Z,14.84
2022-08-10T04:18:36.069Z,14.87
2022-08-10T04:19:36.060Z,14.86
2022-08-10T04:20:36.025Z,14.86
2022-08-10T04:21:36.013Z,14.87
2022-08-10T04:22:36.331Z,14.86
2022-08-10T04:23:35.997Z,14.87
2022-08-10T04:24:36.286Z,14.86
2022-08-10T04:25:35.975Z,14.86
2022-08-10T04:26:35.951Z,14.87
2022-08-10T04:27:35.965Z,14.87
2022-08-10T04:28:35.999Z,14.87
2022-08-10T04:29:35.931Z,14.87
2022-08-10T04:30:35.918Z,14.90
2022-08-10T04:31:35.918Z,14.88
2022-08-10T04:32:36.149Z,14.90
2022-08-10T04:33:35.894Z,14.91
2022-08-10T04:34:35.893Z,14.93
2022-08-10T04:35:35.858Z,14.93
2022-08-10T04:36:36.149Z,14.93
2022-08-10T04:37:35.862Z,14.93
2022-08-10T04:38:35.833Z,14.95
2022-08-10T04:39:36.035Z,14.95
2022-08-10T04:40:35.828Z,14.98
2022-08-10T04:41:35.814Z,14.98
2022-08-10T04:42:36.087Z,14.98
2022-08-10T04:43:35.778Z,15.01
2022-08-10T04:44:35.766Z,15.02
2022-08-10T04:45:48.611Z,15.02
2022-08-10T04:46:56.390Z,15.03
2022-08-10T04:47:57.590Z,15.05
2022-08-10T04:48:41.272Z,15.05
2022-08-10T04:49:54.616Z,15.05
2022-08-10T04:50:35.727Z,15.05
2022-08-10T04:51:35.722Z,15.08
2022-08-10T04:52:36.009Z,15.08
2022-08-10T04:54:03.131Z,15.09
2022-08-10T04:54:35.695Z,15.11
2022-08-10T04:55:35.647Z,15.12
2022-08-10T04:56:35.666Z,15.13
2022-08-10T04:57:35.638Z,15.17
2022-08-10T04:58:35.702Z,15.17
2022-08-10T04:59:35.595Z,15.19
2022-08-10T05:00:35.941Z,15.21
2022-08-10T05:02:09.943Z,15.21
2022-08-10T05:02:35.651Z,15.23
2022-08-10T05:03:35.567Z,15.26
2022-08-10T05:04:42.355Z,15.27
2022-08-10T05:05:35.560Z,15.28
2022-08-10T05:06:35.558Z,15.33
2022-08-10T05:07:44.744Z,15.33
2022-08-10T05:08:35.522Z,15.36
2022-08-10T05:10:00.515Z,15.38
2022-08-10T05:10:35.537Z,15.41
2022-08-10T05:11:35.482Z,15.42
2022-08-10T05:12:36.275Z,15.45
2022-08-10T05:13:35.475Z,15.45
2022-08-10T05:14:35.756Z,15.49
2022-08-10T05:15:35.442Z,15.52
2022-08-10T05:16:35.463Z,15.54
2022-08-10T05:17:35.448Z,15.59
2022-08-10T05:18:35.419Z,15.60
2022-08-10T05:20:03.646Z,15.64
2022-08-10T05:20:35.389Z,15.67
2022-08-10T05:22:04.713Z,15.70
2022-08-10T05:22:35.800Z,15.74
2022-08-10T05:23:35.369Z,15.74
2022-08-10T05:24:35.335Z,15.78
2022-08-10T05:25:38.024Z,15.78
2022-08-10T05:26:39.215Z,15.82
2022-08-10T05:27:35.362Z,15.85
2022-08-10T05:28:35.597Z,15.88
2022-08-10T05:29:35.277Z,15.92
2022-08-10T05:30:35.288Z,15.94
2022-08-10T05:31:35.275Z,15.99
2022-08-10T05:32:57.606Z,16.03
2022-08-10T05:33:35.246Z,16.07
2022-08-10T05:34:35.296Z,16.15
2022-08-10T05:35:56.248Z,16.23
2022-08-10T05:36:35.235Z,16.31
2022-08-10T05:38:13.276Z,16.37
2022-08-10T05:38:35.219Z,16.41
2022-08-10T05:39:35.244Z,16.45
2022-08-10T05:40:35.224Z,16.49
2022-08-10T05:41:35.158Z,16.49
2022-08-10T05:42:35.637Z,16.50
2022-08-10T05:43:35.160Z,16.53
2022-08-10T05:44:35.126Z,16.55
2022-08-10T05:46:15.926Z,16.59
2022-08-10T05:46:35.164Z,16.65
2022-08-10T05:48:41.994Z,16.68
2022-08-10T05:49:04.832Z,16.70
2022-08-10T05:49:35.065Z,16.74
2022-08-10T05:50:35.092Z,16.75
2022-08-10T05:51:35.082Z,16.78
2022-08-10T05:52:35.259Z,16.81
2022-08-10T05:53:59.788Z,16.83
2022-08-10T05:54:35.030Z,16.88
2022-08-10T05:55:35.038Z,16.89
2022-08-10T05:56:53.683Z,16.93
2022-08-10T05:57:35.006Z,16.98
2022-08-10T05:58:35.010Z,16.98
2022-08-10T06:00:35.747Z,17.06
2022-08-10T06:00:49.870Z,17.08
2022-08-10T06:01:35.031Z,17.15
2022-08-10T06:02:35.904Z,17.23
2022-08-10T06:03:34.940Z,17.29
2022-08-10T06:04:34.945Z,17.36
2022-08-10T06:05:34.901Z,17.44
2022-08-10T06:06:34.910Z,17.50
2022-08-10T06:07:35.078Z,17.74
2022-08-10T06:08:34.872Z,18.15
2022-08-10T06:09:34.871Z,18.67
2022-08-10T06:10:35.613Z,19.25
2022-08-10T06:12:23.483Z,19.80
2022-08-10T06:12:54.354Z,20.23
2022-08-10T06:13:57.936Z,20.59
2022-08-10T06:14:34.814Z,20.95
2022-08-10T06:15:51.774Z,21.16
2022-08-10T06:16:34.981Z,21.38
2022-08-10T06:17:34.779Z,21.66
2022-08-10T06:18:35.040Z,22.01
2022-08-10T06:19:34.744Z,22.31
2022-08-10T06:20:36.277Z,22.47
2022-08-10T06:21:34.735Z,22.57
2022-08-10T06:22:34.972Z,22.72
2022-08-10T06:23:34.726Z,23.01
2022-08-10T06:24:34.693Z,23.38
2022-08-10T06:26:34.687Z,24.10
2022-08-10T06:27:35.102Z,24.26
2022-08-10T06:28:34.694Z,24.19
2022-08-10T06:29:34.631Z,24.26
2022-08-10T06:30:34.632Z,24.38
2022-08-10T06:31:48.265Z,24.60
2022-08-10T06:32:34.735Z,24.80
2022-08-10T06:33:34.619Z,24.76
2022-08-10T06:34:34.647Z,24.56
2022-08-10T06:35:34.632Z,24.45
2022-08-10T06:36:34.618Z,24.27
2022-08-10T06:37:34.556Z,24.35
2022-08-10T06:38:34.862Z,24.29
2022-08-10T06:39:35.867Z,24.20
2022-08-10T06:40:34.571Z,24.22
2022-08-10T06:42:01.353Z,24.20
2022-08-10T06:42:34.648Z,24.53
2022-08-10T06:43:34.491Z,24.88
2022-08-10T06:44:34.493Z,25.30
2022-08-10T06:45:34.672Z,25.30
2022-08-10T06:46:34.509Z,25.42
2022-08-10T06:47:34.502Z,25.80
2022-08-10T06:48:34.471Z,25.91
2022-08-10T06:49:34.438Z,25.77
2022-08-10T06:50:56.082Z,25.99
2022-08-10T06:51:34.427Z,26.05
2022-08-10T06:52:34.710Z,26.24
2022-08-10T06:53:52.929Z,26.08
2022-08-10T06:54:34.451Z,26.05
2022-08-10T06:55:49.529Z,26.43
2022-08-10T06:56:36.520Z,26.76
2022-08-10T06:57:34.378Z,26.80
2022-08-10T06:58:34.402Z,26.73
2022-08-10T06:59:34.355Z,26.91
2022-08-10T07:00:34.759Z,26.92
2022-08-10T07:01:34.409Z,26.44
2022-08-10T07:02:34.816Z,26.50
2022-08-10T07:03:34.330Z,26.50
2022-08-10T07:04:34.342Z,26.46
2022-08-10T07:05:34.299Z,26.20
2022-08-10T07:06:34.302Z,26.11
2022-08-10T07:07:34.284Z,26.08
2022-08-10T07:08:34.282Z,26.18
2022-08-10T07:09:34.546Z,26.49
2022-08-10T07:10:45.515Z,26.64
2022-08-10T07:11:34.252Z,26.73
2022-08-10T07:12:34.399Z,26.61
2022-08-10T07:14:14.218Z,26.68
2022-08-10T07:14:34.218Z,26.84
2022-08-10T07:15:59.381Z,26.94
2022-08-10T07:16:34.267Z,26.95
2022-08-10T07:17:39.088Z,26.86
2022-08-10T07:18:34.194Z,26.77
2022-08-10T07:19:34.164Z,26.77
2022-08-10T07:20:34.156Z,26.58
2022-08-10T07:21:34.148Z,26.58
2022-08-10T07:23:54.785Z,26.49
2022-08-10T07:24:04.260Z,26.69
2022-08-10T07:24:34.139Z,27.01
2022-08-10T07:25:34.126Z,27.21
2022-08-10T07:26:34.113Z,27.13
2022-08-10T07:27:40.659Z,26.74
2022-08-10T07:28:34.396Z,26.67
2022-08-10T07:29:53.799Z,26.67
2022-08-10T07:30:34.108Z,26.65
2022-08-10T07:31:57.216Z,26.57
2022-08-10T07:32:34.207Z,26.35
2022-08-10T07:33:34.063Z,26.31
2022-08-10T07:34:34.079Z,26.31
2022-08-10T07:35:42.207Z,26.21
2022-08-10T07:36:34.030Z,26.27
2022-08-10T07:37:34.004Z,26.20
2022-08-10T07:38:34.007Z,26.25
2022-08-10T07:39:58.384Z,26.28
2022-08-10T07:40:34.137Z,26.40
2022-08-10T07:41:33.973Z,26.52
2022-08-10T07:42:34.284Z,26.65
2022-08-10T07:43:33.983Z,26.81
2022-08-10T07:44:33.950Z,26.58
2022-08-10T07:45:33.964Z,26.22
2022-08-10T07:46:33.963Z,26.12
2022-08-10T07:47:52.463Z,26.27
2022-08-10T07:48:33.912Z,26.40
2022-08-10T07:49:34.180Z,26.28
2022-08-10T07:50:36.153Z,26.36
2022-08-10T07:51:33.891Z,26.46
2022-08-10T07:52:33.939Z,26.69
2022-08-10T07:53:33.907Z,26.87
2022-08-10T07:54:33.876Z,27.06
2022-08-10T07:56:05.543Z,26.99
2022-08-10T07:56:48.418Z,27.02
2022-08-10T07:57:38.212Z,26.62
2022-08-10T07:58:33.926Z,26.52
2022-08-10T07:59:33.804Z,26.58
2022-08-10T08:00:33.807Z,26.67
2022-08-10T08:01:33.860Z,26.68
2022-08-10T08:02:34.382Z,26.77
2022-08-10T08:03:33.779Z,26.95
2022-08-10T08:04:33.823Z,27.04
2022-08-10T08:05:58.365Z,26.86
2022-08-10T08:06:33.773Z,26.81
2022-08-10T08:07:33.741Z,26.80
2022-08-10T08:08:33.821Z,26.98
2022-08-10T08:09:33.728Z,27.04
2022-08-10T08:10:33.763Z,26.64
2022-08-10T08:11:33.708Z,26.54
2022-08-10T08:12:38.425Z,26.67
2022-08-10T08:13:33.700Z,26.89
2022-08-10T08:14:33.984Z,26.95
2022-08-10T08:16:20.731Z,27.10
2022-08-10T08:16:33.737Z,27.05
2022-08-10T08:17:35.574Z,27.21
2022-08-10T08:18:36.828Z,27.32
2022-08-10T08:19:37.256Z,27.33
2022-08-10T08:20:33.696Z,27.46
2022-08-10T08:24:10.890Z,27.39
2022-08-10T08:24:36.586Z,27.42
2022-08-10T08:24:42.637Z,27.59
2022-08-10T08:25:41.856Z,27.54
2022-08-10T08:26:42.128Z,27.50
2022-08-10T08:27:41.823Z,27.70
2022-08-10T08:28:41.848Z,27.71
2022-08-10T08:29:41.840Z,27.59
2022-08-10T08:30:45.632Z,27.48
2022-08-10T08:31:54.228Z,27.41
2022-08-10T08:32:41.802Z,27.59
2022-08-10T08:33:42.862Z,27.79
2022-08-10T08:34:41.757Z,27.85
2022-08-10T08:35:41.821Z,27.95
2022-08-10T08:36:41.752Z,28.17
2022-08-10T08:38:33.791Z,28.17
2022-08-10T08:38:41.755Z,28.29
2022-08-10T08:39:46.217Z,28.36
2022-08-10T08:40:41.713Z,28.40
2022-08-10T08:41:41.769Z,28.41
2022-08-10T08:42:41.691Z,28.40
2022-08-10T08:43:41.714Z,28.09
2022-08-10T08:44:41.676Z,28.16
2022-08-10T08:45:54.024Z,28.33
2022-08-10T08:46:41.676Z,28.43
2022-08-10T08:48:03.829Z,28.48
2022-08-10T08:48:41.647Z,28.48
2022-08-10T08:50:08.209Z,28.56
2022-08-10T08:50:41.626Z,28.43
2022-08-10T08:52:07.313Z,28.50
2022-08-10T08:52:41.646Z,28.70
2022-08-10T08:54:02.428Z,28.77
2022-08-10T08:54:41.608Z,28.69
2022-08-10T08:56:05.077Z,28.44
2022-08-10T08:56:41.593Z,28.62
2022-08-10T08:57:50.294Z,28.66
2022-08-10T08:58:41.563Z,28.46
2022-08-10T08:59:41.570Z,28.56
2022-08-10T09:00:41.526Z,28.72
2022-08-10T09:01:41.920Z,28.82
2022-08-10T09:02:41.513Z,29.03
2022-08-10T09:03:41.497Z,29.03
2022-08-10T09:04:41.801Z,28.91
2022-08-10T09:05:58.528Z,28.91
2022-08-10T09:06:41.497Z,29.08
2022-08-10T09:08:01.694Z,29.11
2022-08-10T09:08:41.487Z,28.82
2022-08-10T09:09:41.448Z,28.82
2022-08-10T09:10:41.444Z,28.85
2022-08-10T09:11:41.472Z,29.07
2022-08-10T09:12:41.419Z,29.22
2022-08-10T09:13:41.414Z,29.41
2022-08-10T09:14:41.399Z,29.52
2022-08-10T09:15:41.751Z,29.62
2022-08-10T09:16:41.670Z,29.78
2022-08-10T09:17:41.423Z,29.97
2022-08-10T09:18:41.374Z,30.07
2022-08-10T09:19:41.349Z,29.99
2022-08-10T09:20:41.366Z,29.77
2022-08-10T09:21:43.086Z,29.68
2022-08-10T09:22:41.341Z,29.66
2022-08-10T09:24:02.073Z,29.66
2022-08-10T09:24:41.334Z,29.81
2022-08-10T09:25:41.308Z,29.81
2022-08-10T09:26:41.292Z,29.77
2022-08-10T09:27:43.337Z,29.79
2022-08-10T09:28:41.289Z,29.90
2022-08-10T09:29:41.296Z,30.05
2022-08-10T09:30:52.406Z,30.27
2022-08-10T09:31:41.254Z,30.46
2022-08-10T09:36:20.579Z,30.53
2022-08-10T09:36:33.879Z,30.61
2022-08-10T09:36:39.748Z,29.75
2022-08-10T09:37:39.498Z,29.55
2022-08-10T09:38:39.019Z,29.43
2022-08-10T09:40:56.112Z,29.41
2022-08-10T09:41:09.171Z,29.47
2022-08-10T09:41:39.096Z,29.68
2022-08-10T09:42:38.971Z,29.87
2022-08-10T09:43:38.942Z,30.05
2022-08-10T09:44:58.021Z,30.24
2022-08-10T09:45:38.949Z,30.50
2022-08-10T09:46:38.931Z,30.67
2022-08-10T09:48:01.166Z,30.67
2022-08-10T09:48:39.218Z,30.36
2022-08-10T09:49:55.833Z,30.15
2022-08-10T09:51:16.306Z,30.03
2022-08-10T09:51:47.288Z,30.03
2022-08-10T09:52:38.903Z,29.87
2022-08-10T09:53:38.892Z,29.65
2022-08-10T09:54:38.861Z,29.71
2022-08-10T09:56:17.887Z,29.89
2022-08-10T09:56:38.842Z,30.00
2022-08-10T09:57:43.292Z,29.99
2022-08-10T09:58:38.824Z,30.18
2022-08-10T10:00:00.808Z,30.52
2022-08-10T10:00:38.835Z,30.40
2022-08-10T10:01:58.157Z,30.49
2022-08-10T10:02:38.799Z,30.23
2022-08-10T10:03:38.795Z,30.37
2022-08-10T10:04:38.764Z,30.43
2022-08-10T10:05:39.426Z,30.57
2022-08-10T10:06:38.746Z,30.53
2022-08-10T10:07:38.768Z,30.56
2022-08-10T10:08:42.632Z,30.37
2022-08-10T10:09:38.722Z,30.14
2022-08-10T10:10:46.651Z,30.03
2022-08-10T10:11:38.719Z,29.96
2022-08-10T10:12:38.682Z,30.23
2022-08-10T10:13:44.762Z,30.45
2022-08-10T10:14:38.658Z,30.68
2022-08-10T10:15:38.966Z,30.94
2022-08-10T10:16:38.641Z,31.24
2022-08-10T10:17:38.729Z,31.46
2022-08-10T10:18:38.612Z,31.70
2022-08-10T10:19:40.973Z,31.68
2022-08-10T10:20:38.596Z,31.82
2022-08-10T10:21:55.765Z,31.77
2022-08-10T10:22:38.581Z,31.70
2022-08-10T10:23:38.607Z,31.82
2022-08-10T10:24:38.568Z,31.72
2022-08-10T10:25:51.141Z,31.65
2022-08-10T10:26:38.575Z,31.64
2022-08-10T10:27:38.731Z,31.68
2022-08-10T10:29:15.406Z,31.84
2022-08-10T10:29:56.414Z,32.03
2022-08-10T10:30:38.516Z,32.13
2022-08-10T10:31:38.516Z,32.21
2022-08-10T10:32:39.087Z,32.35
2022-08-10T10:33:38.463Z,32.40
2022-08-10T10:34:38.467Z,32.37
2022-08-10T10:35:38.496Z,32.07
2022-08-10T10:36:38.482Z,31.65
2022-08-10T10:38:00.919Z,31.39
2022-08-10T10:38:38.470Z,31.28
2022-08-10T10:39:38.457Z,31.12
2022-08-10T10:40:38.717Z,31.26
2022-08-10T10:42:03.449Z,31.30
2022-08-10T10:42:45.970Z,31.06
2022-08-10T10:43:38.415Z,31.11
2022-08-10T10:44:42.066Z,31.27
2022-08-10T10:45:50.164Z,31.43
2022-08-10T10:46:38.375Z,31.65
2022-08-10T10:47:38.392Z,31.75
2022-08-10T10:48:38.328Z,31.65
2022-08-10T10:49:38.334Z,31.67
2022-08-10T10:50:38.314Z,31.57
2022-08-10T10:51:38.286Z,31.82
2022-08-10T10:52:38.285Z,32.11
2022-08-10T10:53:38.303Z,32.32
2022-08-10T10:54:38.266Z,32.05
2022-08-10T10:56:14.948Z,32.06
2022-08-10T10:56:38.287Z,32.06
2022-08-10T10:57:59.362Z,31.92
2022-08-10T10:58:38.239Z,31.93
2022-08-10T10:59:55.257Z,31.68
2022-08-10T11:00:38.214Z,31.24
2022-08-10T11:01:38.265Z,31.20
2022-08-10T11:02:38.200Z,31.36
2022-08-10T11:03:38.194Z,31.17
2022-08-10T11:04:38.192Z,31.12
2022-08-10T11:05:38.193Z,31.09
2022-08-10T11:06:40.844Z,31.01
2022-08-10T11:07:38.225Z,31.05
2022-08-10T11:08:38.161Z,31.21
2022-08-10T11:10:08.942Z,31.53
2022-08-10T11:10:46.887Z,31.76
2022-08-10T11:12:00.116Z,32.06
2022-08-10T11:12:39.918Z,32.22
2022-08-10T11:14:26.090Z,32.42
2022-08-10T11:14:38.079Z,32.47
2022-08-10T11:15:42.775Z,32.62
2022-08-10T11:16:38.063Z,32.93
2022-08-10T11:17:38.278Z,33.22
2022-08-10T11:18:38.039Z,33.36
2022-08-10T11:20:00.502Z,33.33
2022-08-10T11:20:38.033Z,33.17
2022-08-10T11:21:38.001Z,32.93
2022-08-10T11:22:38.310Z,32.93
2022-08-10T11:23:38.017Z,32.76
2022-08-10T11:24:48.885Z,32.30
2022-08-10T11:25:37.969Z,32.13
2022-08-10T11:26:37.984Z,32.43
2022-08-10T11:27:38.153Z,32.77
2022-08-10T11:28:37.950Z,33.13
2022-08-10T11:29:39.696Z,33.45
2022-08-10T11:30:37.929Z,33.73
2022-08-10T11:31:37.899Z,33.95
2022-08-10T11:32:37.941Z,34.00
2022-08-10T11:34:03.920Z,33.97
2022-08-10T11:35:11.793Z,33.94
2022-08-10T11:35:37.866Z,33.82
2022-08-10T11:36:37.866Z,33.71
2022-08-10T11:38:31.118Z,33.86
2022-08-10T11:38:57.727Z,34.13
2022-08-10T11:39:37.922Z,34.24
2022-08-10T11:40:37.868Z,33.90
2022-08-10T11:42:10.367Z,33.64
2022-08-10T11:42:37.829Z,33.33
2022-08-10T11:43:37.785Z,33.55
2022-08-10T11:44:37.787Z,33.67
2022-08-10T11:45:37.775Z,33.70
2022-08-10T11:46:37.821Z,34.05
2022-08-10T11:47:37.756Z,34.34
2022-08-10T11:48:53.953Z,34.22
2022-08-10T11:49:37.737Z,34.00
2022-08-10T11:50:37.749Z,33.83
2022-08-10T11:51:37.709Z,33.94
2022-08-10T11:52:38.353Z,34.22
2022-08-10T11:53:39.236Z,34.57
2022-08-10T11:54:37.691Z,34.73
2022-08-10T11:55:37.699Z,34.88
2022-08-10T11:56:37.700Z,35.21
2022-08-10T11:57:53.293Z,35.54
2022-08-10T11:58:37.695Z,35.77
2022-08-10T11:59:37.658Z,35.84
2022-08-10T12:00:37.645Z,35.48
2022-08-10T12:01:37.644Z,34.92
2022-08-10T12:02:37.901Z,34.32
2022-08-10T12:03:37.604Z,34.04
2022-08-10T12:04:38.052Z,34.16
2022-08-10T12:05:53.105Z,34.53
2022-08-10T12:06:54.704Z,34.70
2022-08-10T12:10:06.915Z,34.20
2022-08-10T12:10:17.539Z,33.92
2022-08-10T12:10:22.865Z,34.45
2022-08-10T12:11:24.826Z,34.44
2022-08-10T12:12:22.480Z,34.70
2022-08-10T12:13:22.471Z,34.13
2022-08-10T12:14:23.187Z,34.01
2022-08-10T12:15:22.513Z,34.26
2022-08-10T12:16:22.438Z,34.61
2022-08-10T12:17:22.928Z,34.88
2022-08-10T12:18:22.462Z,35.26
2022-08-10T12:19:22.420Z,35.26
2022-08-10T12:20:22.394Z,35.01
2022-08-10T12:21:22.487Z,34.27
2022-08-10T12:22:22.386Z,34.04
2022-08-10T12:23:22.410Z,34.13
2022-08-10T12:24:22.373Z,34.44
2022-08-10T12:25:57.108Z,34.64
2022-08-10T12:26:22.348Z,34.50
2022-08-10T12:27:22.373Z,34.77
2022-08-10T12:28:22.355Z,34.76
2022-08-10T12:29:25.229Z,35.14
2022-08-10T12:30:22.316Z,35.32
2022-08-10T12:31:22.298Z,35.45
2022-08-10T12:32:25.474Z,35.69
2022-08-10T12:33:22.308Z,35.77
2022-08-10T12:34:22.263Z,35.37
2022-08-10T12:35:23.723Z,35.55
2022-08-10T12:36:22.302Z,35.76
2022-08-10T12:37:22.246Z,35.85
2022-08-10T12:38:22.227Z,35.97
2022-08-10T12:39:22.334Z,35.69
2022-08-10T12:40:37.754Z,35.63
2022-08-10T12:41:43.817Z,35.55
2022-08-10T12:42:34.921Z,35.35
2022-08-10T12:44:06.787Z,34.98
2022-08-10T12:44:22.199Z,34.58
2022-08-10T12:45:22.304Z,34.63
2022-08-10T12:46:22.147Z,34.16
2022-08-10T12:47:22.144Z,34.13
2022-08-10T12:48:22.404Z,34.45
2022-08-10T12:49:22.122Z,34.83
2022-08-10T12:50:33.026Z,35.17
2022-08-10T12:51:22.158Z,35.42
2022-08-10T12:52:22.108Z,35.33
2022-08-10T12:53:22.093Z,35.07
2022-08-10T12:54:31.435Z,35.07
2022-08-10T12:55:22.124Z,35.10
2022-08-10T12:56:22.065Z,34.58
2022-08-10T12:57:22.092Z,34.38
2022-08-10T12:58:59.928Z,34.05
2022-08-10T12:59:22.041Z,34.22
2022-08-10T13:00:22.023Z,34.45